sensor_id;sensor_type;location;lat;lon;timestamp;P1;durP1;ratioP1;P2;durP2;ratioP2
24102;SDS011;12278;53.058;9.028;2022-08-01T00:01:01;3.10;;;2.83;;
24102;SDS011;12278;53.058;9.028;2022-08-01T00:05:02;3.87;;;2.87;;
24102;SDS011;12278;53.058;9.028;2022-08-01T00:09:05;2.83;;;2.63;;
24102;SDS011;12278;53.058;9.028;2022-08-01T00:13:06;3.00;;;2.60;;
24102;SDS011;12278;53.058;9.028;2022-08-01T00:17:07;2.70;;;2.50;;
24102;SDS011;12278;53.058;9.028;2022-08-01T00:21:08;3.38;;;3.17;;
24102;SDS011;12278;53.058;9.028;2022-08-01T00:25:09;4.13;;;3.33;;
24102;SDS011;12278;53.058;9.028;2022-08-01T00:29:10;3.65;;;3.30;;
24102;SDS011;12278;53.058;9.028;2022-08-01T00:33:11;4.88;;;3.58;;
24102;SDS011;12278;53.058;9.028;2022-08-01T00:37:11;4.82;;;3.72;;
24102;SDS011;12278;53.058;9.028;2022-08-01T00:41:12;5.22;;;4.35;;
24102;SDS011;12278;53.058;9.028;2022-08-01T00:45:13;4.22;;;3.85;;
24102;SDS011;12278;53.058;9.028;2022-08-01T00:49:14;4.88;;;4.47;;
24102;SDS011;12278;53.058;9.028;2022-08-01T00:53:15;5.40;;;4.93;;
24102;SDS011;12278;53.058;9.028;2022-08-01T00:57:16;5.43;;;4.93;;
24102;SDS011;12278;53.058;9.028;2022-08-01T01:01:17;6.60;;;5.43;;
24102;SDS011;12278;53.058;9.028;2022-08-01T01:05:20;5.88;;;5.38;;
24102;SDS011;12278;53.058;9.028;2022-08-01T01:14:14;7.18;;;5.97;;
24102;SDS011;12278;53.058;9.028;2022-08-01T01:18:32;7.88;;;6.30;;
24102;SDS011;12278;53.058;9.028;2022-08-01T01:26:57;6.68;;;6.07;;
24102;SDS011;12278;53.058;9.028;2022-08-01T01:31:28;6.63;;;5.72;;
24102;SDS011;12278;53.058;9.028;2022-08-01T01:35:42;7.03;;;6.28;;
24102;SDS011;12278;53.058;9.028;2022-08-01T01:39:48;7.22;;;6.53;;
24102;SDS011;12278;53.058;9.028;2022-08-01T01:43:52;7.68;;;6.88;;
24102;SDS011;12278;53.058;9.028;2022-08-01T01:47:55;8.00;;;6.68;;
24102;SDS011;12278;53.058;9.028;2022-08-01T01:51:59;9.07;;;7.55;;
24102;SDS011;12278;53.058;9.028;2022-08-01T01:56:03;10.05;;;7.43;;
24102;SDS011;12278;53.058;9.028;2022-08-01T02:00:04;11.13;;;9.05;;
24102;SDS011;12278;53.058;9.028;2022-08-01T02:04:08;9.32;;;8.27;;
24102;SDS011;12278;53.058;9.028;2022-08-01T02:08:10;10.80;;;8.95;;
24102;SDS011;12278;53.058;9.028;2022-08-01T02:12:15;11.20;;;8.43;;
24102;SDS011;12278;53.058;9.028;2022-08-01T02:16:19;10.07;;;7.80;;
24102;SDS011;12278;53.058;9.028;2022-08-01T02:20:24;9.60;;;7.65;;
24102;SDS011;12278;53.058;9.028;2022-08-01T02:24:36;9.82;;;7.22;;
24102;SDS011;12278;53.058;9.028;2022-08-01T02:28:59;9.40;;;6.25;;
24102;SDS011;12278;53.058;9.028;2022-08-01T02:33:16;7.25;;;6.55;;
24102;SDS011;12278;53.058;9.028;2022-08-01T02:37:21;7.72;;;6.50;;
24102;SDS011;12278;53.058;9.028;2022-08-01T02:41:26;6.43;;;5.50;;
24102;SDS011;12278;53.058;9.028;2022-08-01T02:45:30;6.53;;;5.93;;
24102;SDS011;12278;53.058;9.028;2022-08-01T02:49:38;6.53;;;5.82;;
24102;SDS011;12278;53.058;9.028;2022-08-01T02:53:44;6.80;;;5.90;;
24102;SDS011;12278;53.058;9.028;2022-08-01T02:57:47;6.22;;;5.63;;
24102;SDS011;12278;53.058;9.028;2022-08-01T03:01:54;6.78;;;6.20;;
24102;SDS011;12278;53.058;9.028;2022-08-01T03:05:58;7.05;;;6.38;;
24102;SDS011;12278;53.058;9.028;2022-08-01T03:10:01;7.70;;;6.90;;
24102;SDS011;12278;53.058;9.028;2022-08-01T03:14:05;8.15;;;7.35;;
24102;SDS011;12278;53.058;9.028;2022-08-01T03:18:09;7.75;;;6.93;;
24102;SDS011;12278;53.058;9.028;2022-08-01T03:22:12;8.27;;;7.32;;
24102;SDS011;12278;53.058;9.028;2022-08-01T03:26:17;7.85;;;7.05;;
24102;SDS011;12278;53.058;9.028;2022-08-01T03:30:19;7.20;;;6.50;;
24102;SDS011;12278;53.058;9.028;2022-08-01T03:34:23;7.45;;;6.82;;
24102;SDS011;12278;53.058;9.028;2022-08-01T03:38:25;7.80;;;7.00;;
24102;SDS011;12278;53.058;9.028;2022-08-01T03:42:32;8.20;;;7.47;;
24102;SDS011;12278;53.058;9.028;2022-08-01T03:46:42;7.35;;;6.25;;
24102;SDS011;12278;53.058;9.028;2022-08-01T03:50:48;7.40;;;6.70;;
24102;SDS011;12278;53.058;9.028;2022-08-01T03:54:52;9.70;;;6.83;;
24102;SDS011;12278;53.058;9.028;2022-08-01T03:58:56;11.40;;;6.47;;
24102;SDS011;12278;53.058;9.028;2022-08-01T04:02:59;7.53;;;6.82;;
24102;SDS011;12278;53.058;9.028;2022-08-01T04:07:01;8.10;;;6.43;;
24102;SDS011;12278;53.058;9.028;2022-08-01T04:11:07;7.40;;;6.63;;
24102;SDS011;12278;53.058;9.028;2022-08-01T04:15:09;10.05;;;6.80;;
24102;SDS011;12278;53.058;9.028;2022-08-01T04:19:10;8.30;;;6.43;;
24102;SDS011;12278;53.058;9.028;2022-08-01T04:23:11;7.32;;;6.53;;
24102;SDS011;12278;53.058;9.028;2022-08-01T04:27:19;7.00;;;5.38;;
24102;SDS011;12278;53.058;9.028;2022-08-01T04:31:31;9.32;;;6.60;;
24102;SDS011;12278;53.058;9.028;2022-08-01T04:35:34;7.03;;;6.30;;
24102;SDS011;12278;53.058;9.028;2022-08-01T04:39:40;7.80;;;6.47;;
24102;SDS011;12278;53.058;9.028;2022-08-01T04:43:44;7.45;;;6.30;;
24102;SDS011;12278;53.058;9.028;2022-08-01T04:47:46;10.50;;;6.85;;
24102;SDS011;12278;53.058;9.028;2022-08-01T04:51:52;7.38;;;5.88;;
24102;SDS011;12278;53.058;9.028;2022-08-01T04:55:59;5.60;;;5.07;;
24102;SDS011;12278;53.058;9.028;2022-08-01T05:00:00;5.22;;;4.38;;
24102;SDS011;12278;53.058;9.028;2022-08-01T05:04:03;5.28;;;4.03;;
24102;SDS011;12278;53.058;9.028;2022-08-01T05:08:04;5.75;;;4.53;;
24102;SDS011;12278;53.058;9.028;2022-08-01T05:12:06;4.63;;;3.67;;
24102;SDS011;12278;53.058;9.028;2022-08-01T05:16:07;6.45;;;4.32;;
24102;SDS011;12278;53.058;9.028;2022-08-01T05:20:08;5.32;;;4.07;;
24102;SDS011;12278;53.058;9.028;2022-08-01T05:24:11;4.70;;;3.85;;
24102;SDS011;12278;53.058;9.028;2022-08-01T05:28:12;4.00;;;3.60;;
24102;SDS011;12278;53.058;9.028;2022-08-01T05:32:13;3.38;;;3.08;;
24102;SDS011;12278;53.058;9.028;2022-08-01T05:36:14;3.30;;;3.00;;
24102;SDS011;12278;53.058;9.028;2022-08-01T05:40:15;4.18;;;3.28;;
24102;SDS011;12278;53.058;9.028;2022-08-01T05:44:16;2.67;;;2.47;;
24102;SDS011;12278;53.058;9.028;2022-08-01T05:48:17;4.55;;;2.50;;
24102;SDS011;12278;53.058;9.028;2022-08-01T05:52:17;2.97;;;2.60;;
24102;SDS011;12278;53.058;9.028;2022-08-01T05:56:18;2.40;;;2.20;;
24102;SDS011;12278;53.058;9.028;2022-08-01T06:00:21;4.15;;;1.70;;
24102;SDS011;12278;53.058;9.028;2022-08-01T06:04:22;3.28;;;2.05;;
24102;SDS011;12278;53.058;9.028;2022-08-01T06:08:23;3.50;;;1.92;;
24102;SDS011;12278;53.058;9.028;2022-08-01T06:12:24;4.05;;;1.95;;
24102;SDS011;12278;53.058;9.028;2022-08-01T06:16:24;4.60;;;2.50;;
24102;SDS011;12278;53.058;9.028;2022-08-01T06:20:25;6.45;;;2.78;;
24102;SDS011;12278;53.058;9.028;2022-08-01T06:24:26;5.68;;;2.90;;
24102;SDS011;12278;53.058;9.028;2022-08-01T06:28:27;4.95;;;3.33;;
24102;SDS011;12278;53.058;9.028;2022-08-01T06:32:29;9.05;;;3.65;;
24102;SDS011;12278;53.058;9.028;2022-08-01T06:36:31;8.27;;;4.85;;
24102;SDS011;12278;53.058;9.028;2022-08-01T06:40:31;8.65;;;3.53;;
24102;SDS011;12278;53.058;9.028;2022-08-01T06:44:32;8.55;;;3.30;;
24102;SDS011;12278;53.058;9.028;2022-08-01T06:48:33;8.60;;;3.97;;
24102;SDS011;12278;53.058;9.028;2022-08-01T06:52:39;9.32;;;3.85;;
24102;SDS011;12278;53.058;9.028;2022-08-01T06:56:40;12.18;;;4.43;;
24102;SDS011;12278;53.058;9.028;2022-08-01T07:00:41;8.27;;;4.00;;
24102;SDS011;12278;53.058;9.028;2022-08-01T07:04:42;14.13;;;4.93;;
24102;SDS011;12278;53.058;9.028;2022-08-01T07:08:43;10.38;;;4.30;;
24102;SDS011;12278;53.058;9.028;2022-08-01T07:12:44;15.73;;;4.93;;
24102;SDS011;12278;53.058;9.028;2022-08-01T07:16:45;10.80;;;4.22;;
24102;SDS011;12278;53.058;9.028;2022-08-01T07:20:46;7.32;;;3.20;;
24102;SDS011;12278;53.058;9.028;2022-08-01T07:24:46;9.07;;;4.05;;
24102;SDS011;12278;53.058;9.028;2022-08-01T07:28:47;9.10;;;3.40;;
24102;SDS011;12278;53.058;9.028;2022-08-01T07:32:48;7.85;;;4.03;;
24102;SDS011;12278;53.058;9.028;2022-08-01T07:36:49;11.40;;;3.97;;
24102;SDS011;12278;53.058;9.028;2022-08-01T07:40:50;10.45;;;4.60;;
24102;SDS011;12278;53.058;9.028;2022-08-01T07:44:51;11.77;;;3.97;;
24102;SDS011;12278;53.058;9.028;2022-08-01T07:48:52;11.57;;;4.35;;
24102;SDS011;12278;53.058;9.028;2022-08-01T07:52:53;11.43;;;4.35;;
24102;SDS011;12278;53.058;9.028;2022-08-01T07:56:54;7.95;;;3.92;;
24102;SDS011;12278;53.058;9.028;2022-08-01T08:00:56;11.15;;;4.40;;
24102;SDS011;12278;53.058;9.028;2022-08-01T08:04:59;9.85;;;4.20;;
24102;SDS011;12278;53.058;9.028;2022-08-01T08:09:01;11.00;;;3.80;;
24102;SDS011;12278;53.058;9.028;2022-08-01T08:13:02;6.13;;;3.58;;
24102;SDS011;12278;53.058;9.028;2022-08-01T08:17:04;12.90;;;4.50;;
24102;SDS011;12278;53.058;9.028;2022-08-01T08:21:06;7.18;;;4.03;;
24102;SDS011;12278;53.058;9.028;2022-08-01T08:25:07;13.52;;;3.88;;
24102;SDS011;12278;53.058;9.028;2022-08-01T08:29:08;11.77;;;3.63;;
24102;SDS011;12278;53.058;9.028;2022-08-01T08:33:09;7.93;;;3.42;;
24102;SDS011;12278;53.058;9.028;2022-08-01T08:37:10;7.40;;;3.42;;
24102;SDS011;12278;53.058;9.028;2022-08-01T08:41:11;11.00;;;3.40;;
24102;SDS011;12278;53.058;9.028;2022-08-01T08:45:13;8.25;;;3.47;;
24102;SDS011;12278;53.058;9.028;2022-08-01T08:49:18;13.43;;;3.55;;
24102;SDS011;12278;53.058;9.028;2022-08-01T08:53:26;8.57;;;3.92;;
24102;SDS011;12278;53.058;9.028;2022-08-01T08:57:31;11.02;;;3.63;;
24102;SDS011;12278;53.058;9.028;2022-08-01T09:01:32;9.85;;;3.40;;
24102;SDS011;12278;53.058;9.028;2022-08-01T09:05:35;8.32;;;3.65;;
24102;SDS011;12278;53.058;9.028;2022-08-01T09:09:36;12.25;;;3.22;;
24102;SDS011;12278;53.058;9.028;2022-08-01T09:13:37;11.00;;;3.50;;
24102;SDS011;12278;53.058;9.028;2022-08-01T09:17:41;7.50;;;2.97;;
24102;SDS011;12278;53.058;9.028;2022-08-01T09:21:58;11.25;;;3.40;;
24102;SDS011;12278;53.058;9.028;2022-08-01T09:26:03;8.70;;;2.50;;
24102;SDS011;12278;53.058;9.028;2022-08-01T09:30:14;7.30;;;2.80;;
24102;SDS011;12278;53.058;9.028;2022-08-01T09:34:26;6.38;;;2.28;;
24102;SDS011;12278;53.058;9.028;2022-08-01T09:38:29;6.57;;;2.28;;
24102;SDS011;12278;53.058;9.028;2022-08-01T09:42:30;10.15;;;2.63;;
24102;SDS011;12278;53.058;9.028;2022-08-01T09:46:31;6.72;;;2.47;;
24102;SDS011;12278;53.058;9.028;2022-08-01T09:50:39;6.90;;;2.38;;
24102;SDS011;12278;53.058;9.028;2022-08-01T09:54:42;6.75;;;2.08;;
24102;SDS011;12278;53.058;9.028;2022-08-01T09:59:01;6.82;;;2.28;;
24102;SDS011;12278;53.058;9.028;2022-08-01T10:03:20;9.75;;;2.47;;
24102;SDS011;12278;53.058;9.028;2022-08-01T10:07:24;12.05;;;2.47;;
24102;SDS011;12278;53.058;9.028;2022-08-01T10:11:25;6.00;;;2.38;;
24102;SDS011;12278;53.058;9.028;2022-08-01T10:15:29;8.52;;;2.40;;
24102;SDS011;12278;53.058;9.028;2022-08-01T10:19:32;6.40;;;1.85;;
24102;SDS011;12278;53.058;9.028;2022-08-01T10:23:38;5.45;;;2.40;;
24102;SDS011;12278;53.058;9.028;2022-08-01T10:27:41;6.60;;;2.30;;
24102;SDS011;12278;53.058;9.028;2022-08-01T10:31:47;7.40;;;2.75;;
24102;SDS011;12278;53.058;9.028;2022-08-01T10:35:50;6.57;;;2.13;;
24102;SDS011;12278;53.058;9.028;2022-08-01T10:39:58;9.60;;;2.63;;
24102;SDS011;12278;53.058;9.028;2022-08-01T10:44:01;9.05;;;2.20;;
24102;SDS011;12278;53.058;9.028;2022-08-01T10:48:04;7.57;;;2.15;;
24102;SDS011;12278;53.058;9.028;2022-08-01T10:52:14;10.55;;;2.72;;
24102;SDS011;12278;53.058;9.028;2022-08-01T10:56:18;7.85;;;2.42;;
24102;SDS011;12278;53.058;9.028;2022-08-01T11:00:21;6.75;;;2.25;;
24102;SDS011;12278;53.058;9.028;2022-08-01T11:04:24;11.00;;;2.60;;
24102;SDS011;12278;53.058;9.028;2022-08-01T11:08:52;7.45;;;2.83;;
24102;SDS011;12278;53.058;9.028;2022-08-01T11:12:54;6.78;;;2.13;;
24102;SDS011;12278;53.058;9.028;2022-08-01T11:17:03;6.53;;;2.30;;
24102;SDS011;12278;53.058;9.028;2022-08-01T11:34:11;5.32;;;1.67;;
24102;SDS011;12278;53.058;9.028;2022-08-01T11:38:25;8.07;;;2.08;;
24102;SDS011;12278;53.058;9.028;2022-08-01T11:42:30;4.90;;;1.95;;
24102;SDS011;12278;53.058;9.028;2022-08-01T11:51:09;8.52;;;2.00;;
24102;SDS011;12278;53.058;9.028;2022-08-01T11:55:16;5.13;;;1.92;;
24102;SDS011;12278;53.058;9.028;2022-08-01T11:59:17;5.88;;;1.80;;
24102;SDS011;12278;53.058;9.028;2022-08-01T12:03:25;6.07;;;1.85;;
24102;SDS011;12278;53.058;9.028;2022-08-01T12:07:32;5.40;;;1.90;;
24102;SDS011;12278;53.058;9.028;2022-08-01T12:11:35;4.93;;;1.80;;
24102;SDS011;12278;53.058;9.028;2022-08-01T12:15:36;6.22;;;1.77;;
24102;SDS011;12278;53.058;9.028;2022-08-01T12:19:38;5.60;;;2.08;;
24102;SDS011;12278;53.058;9.028;2022-08-01T12:23:40;3.22;;;1.77;;
24102;SDS011;12278;53.058;9.028;2022-08-01T12:27:42;3.80;;;1.63;;
24102;SDS011;12278;53.058;9.028;2022-08-01T12:31:44;5.95;;;2.13;;
24102;SDS011;12278;53.058;9.028;2022-08-01T12:35:46;5.13;;;2.13;;
24102;SDS011;12278;53.058;9.028;2022-08-01T12:39:47;6.00;;;2.13;;
24102;SDS011;12278;53.058;9.028;2022-08-01T12:43:48;3.53;;;1.70;;
24102;SDS011;12278;53.058;9.028;2022-08-01T12:47:49;4.85;;;1.70;;
24102;SDS011;12278;53.058;9.028;2022-08-01T12:55:54;3.38;;;1.38;;
24102;SDS011;12278;53.058;9.028;2022-08-01T13:16:24;6.45;;;2.22;;
24102;SDS011;12278;53.058;9.028;2022-08-01T13:24:30;5.95;;;1.75;;
24102;SDS011;12278;53.058;9.028;2022-08-01T13:28:31;7.30;;;1.80;;
24102;SDS011;12278;53.058;9.028;2022-08-01T13:32:32;3.70;;;1.52;;
24102;SDS011;12278;53.058;9.028;2022-08-01T13:36:33;5.13;;;1.77;;
24102;SDS011;12278;53.058;9.028;2022-08-01T13:40:35;4.53;;;1.73;;
24102;SDS011;12278;53.058;9.028;2022-08-01T13:44:36;5.63;;;2.25;;
24102;SDS011;12278;53.058;9.028;2022-08-01T13:48:37;3.05;;;1.90;;
24102;SDS011;12278;53.058;9.028;2022-08-01T13:52:38;5.60;;;1.75;;
24102;SDS011;12278;53.058;9.028;2022-08-01T13:56:38;6.63;;;2.42;;
24102;SDS011;12278;53.058;9.028;2022-08-01T14:00:39;5.68;;;1.90;;
24102;SDS011;12278;53.058;9.028;2022-08-01T14:04:40;5.78;;;1.85;;
24102;SDS011;12278;53.058;9.028;2022-08-01T14:08:42;6.55;;;1.90;;
24102;SDS011;12278;53.058;9.028;2022-08-01T14:12:44;3.90;;;1.70;;
24102;SDS011;12278;53.058;9.028;2022-08-01T14:16:45;4.45;;;1.80;;
24102;SDS011;12278;53.058;9.028;2022-08-01T14:20:46;8.77;;;1.92;;
24102;SDS011;12278;53.058;9.028;2022-08-01T14:24:47;6.00;;;1.60;;
24102;SDS011;12278;53.058;9.028;2022-08-01T14:28:49;13.88;;;2.88;;
24102;SDS011;12278;53.058;9.028;2022-08-01T14:32:49;6.82;;;2.15;;
24102;SDS011;12278;53.058;9.028;2022-08-01T14:36:50;4.03;;;1.85;;
24102;SDS011;12278;53.058;9.028;2022-08-01T14:40:53;3.42;;;1.65;;
24102;SDS011;12278;53.058;9.028;2022-08-01T14:44:55;3.97;;;1.45;;
24102;SDS011;12278;53.058;9.028;2022-08-01T14:48:56;6.30;;;1.85;;
24102;SDS011;12278;53.058;9.028;2022-08-01T14:52:57;6.20;;;2.25;;
24102;SDS011;12278;53.058;9.028;2022-08-01T14:56:58;4.78;;;2.00;;
24102;SDS011;12278;53.058;9.028;2022-08-01T15:00:59;5.22;;;1.92;;
24102;SDS011;12278;53.058;9.028;2022-08-01T15:05:00;7.38;;;1.98;;
24102;SDS011;12278;53.058;9.028;2022-08-01T15:09:01;5.45;;;1.90;;
24102;SDS011;12278;53.058;9.028;2022-08-01T15:13:03;4.40;;;1.65;;
24102;SDS011;12278;53.058;9.028;2022-08-01T15:17:04;4.18;;;1.88;;
24102;SDS011;12278;53.058;9.028;2022-08-01T15:21:07;6.40;;;1.90;;
24102;SDS011;12278;53.058;9.028;2022-08-01T15:25:09;4.30;;;1.80;;
24102;SDS011;12278;53.058;9.028;2022-08-01T15:29:10;6.75;;;2.13;;
24102;SDS011;12278;53.058;9.028;2022-08-01T15:33:13;5.65;;;2.05;;
24102;SDS011;12278;53.058;9.028;2022-08-01T15:37:14;4.43;;;1.73;;
24102;SDS011;12278;53.058;9.028;2022-08-01T15:41:15;5.15;;;1.92;;
24102;SDS011;12278;53.058;9.028;2022-08-01T15:45:16;6.43;;;2.05;;
24102;SDS011;12278;53.058;9.028;2022-08-01T15:49:18;6.47;;;1.70;;
24102;SDS011;12278;53.058;9.028;2022-08-01T15:53:22;5.50;;;1.70;;
24102;SDS011;12278;53.058;9.028;2022-08-01T15:57:23;8.07;;;2.08;;
24102;SDS011;12278;53.058;9.028;2022-08-01T16:01:23;2.97;;;1.88;;
24102;SDS011;12278;53.058;9.028;2022-08-01T16:05:28;4.40;;;2.10;;
24102;SDS011;12278;53.058;9.028;2022-08-01T16:09:29;5.88;;;2.03;;
24102;SDS011;12278;53.058;9.028;2022-08-01T16:13:29;3.08;;;1.95;;
24102;SDS011;12278;53.058;9.028;2022-08-01T16:17:30;8.23;;;2.08;;
24102;SDS011;12278;53.058;9.028;2022-08-01T16:21:31;4.82;;;1.70;;
24102;SDS011;12278;53.058;9.028;2022-08-01T16:25:32;8.52;;;2.08;;
24102;SDS011;12278;53.058;9.028;2022-08-01T16:29:33;4.95;;;1.95;;
24102;SDS011;12278;53.058;9.028;2022-08-01T16:33:34;5.30;;;2.20;;
24102;SDS011;12278;53.058;9.028;2022-08-01T17:25:45;3.58;;;1.90;;
24102;SDS011;12278;53.058;9.028;2022-08-01T17:29:46;4.65;;;2.08;;
24102;SDS011;12278;53.058;9.028;2022-08-01T17:33:48;4.72;;;2.30;;
24102;SDS011;12278;53.058;9.028;2022-08-01T17:37:49;5.05;;;2.55;;
24102;SDS011;12278;53.058;9.028;2022-08-01T17:41:50;5.38;;;2.15;;
24102;SDS011;12278;53.058;9.028;2022-08-01T17:45:51;5.78;;;2.00;;
24102;SDS011;12278;53.058;9.028;2022-08-01T17:49:53;5.47;;;1.95;;
24102;SDS011;12278;53.058;9.028;2022-08-01T17:53:54;7.07;;;2.47;;
24102;SDS011;12278;53.058;9.028;2022-08-01T17:57:55;4.13;;;2.17;;
24102;SDS011;12278;53.058;9.028;2022-08-01T18:46:09;4.90;;;2.10;;
24102;SDS011;12278;53.058;9.028;2022-08-01T18:50:10;8.55;;;2.55;;
24102;SDS011;12278;53.058;9.028;2022-08-01T18:54:14;5.10;;;2.40;;
24102;SDS011;12278;53.058;9.028;2022-08-01T18:58:16;5.85;;;2.15;;
24102;SDS011;12278;53.058;9.028;2022-08-01T19:02:17;5.28;;;2.25;;
24102;SDS011;12278;53.058;9.028;2022-08-01T19:06:19;6.18;;;1.95;;
24102;SDS011;12278;53.058;9.028;2022-08-01T19:10:20;5.50;;;2.88;;
24102;SDS011;12278;53.058;9.028;2022-08-01T19:14:21;5.55;;;2.20;;
24102;SDS011;12278;53.058;9.028;2022-08-01T20:19:39;5.75;;;2.30;;
24102;SDS011;12278;53.058;9.028;2022-08-01T20:23:40;7.07;;;2.67;;
24102;SDS011;12278;53.058;9.028;2022-08-01T20:27:44;5.65;;;2.42;;
24102;SDS011;12278;53.058;9.028;2022-08-01T20:31:47;6.38;;;2.67;;
24102;SDS011;12278;53.058;9.028;2022-08-01T20:35:49;7.85;;;2.40;;
24102;SDS011;12278;53.058;9.028;2022-08-01T20:39:52;7.50;;;2.35;;
24102;SDS011;12278;53.058;9.028;2022-08-01T20:43:57;7.53;;;3.38;;
24102;SDS011;12278;53.058;9.028;2022-08-01T20:47:57;6.20;;;3.00;;
24102;SDS011;12278;53.058;9.028;2022-08-01T20:52:00;4.25;;;2.60;;
24102;SDS011;12278;53.058;9.028;2022-08-01T21:00:45;6.20;;;2.88;;
24102;SDS011;12278;53.058;9.028;2022-08-01T21:09:12;3.45;;;2.60;;
24102;SDS011;12278;53.058;9.028;2022-08-01T21:13:21;4.97;;;2.85;;
24102;SDS011;12278;53.058;9.028;2022-08-01T21:18:29;6.90;;;2.88;;
24102;SDS011;12278;53.058;9.028;2022-08-01T21:22:10;5.50;;;3.33;;
24102;SDS011;12278;53.058;9.028;2022-08-01T21:26:20;11.00;;;3.28;;
24102;SDS011;12278;53.058;9.028;2022-08-01T21:30:23;4.57;;;2.95;;
24102;SDS011;12278;53.058;9.028;2022-08-01T21:34:24;4.63;;;3.35;;
24102;SDS011;12278;53.058;9.028;2022-08-01T21:38:25;6.15;;;3.10;;
24102;SDS011;12278;53.058;9.028;2022-08-01T21:42:26;4.95;;;2.80;;
24102;SDS011;12278;53.058;9.028;2022-08-01T21:46:28;4.93;;;2.42;;
24102;SDS011;12278;53.058;9.028;2022-08-01T21:50:30;4.95;;;2.65;;
24102;SDS011;12278;53.058;9.028;2022-08-01T21:55:05;3.92;;;3.05;;
24102;SDS011;12278;53.058;9.028;2022-08-01T22:03:53;8.13;;;3.00;;
24102;SDS011;12278;53.058;9.028;2022-08-01T22:07:59;3.75;;;2.90;;
24102;SDS011;12278;53.058;9.028;2022-08-01T22:12:06;5.55;;;3.40;;
24102;SDS011;12278;53.058;9.028;2022-08-01T22:16:07;2.78;;;2.58;;
24102;SDS011;12278;53.058;9.028;2022-08-01T22:20:11;6.05;;;3.20;;
24102;SDS011;12278;53.058;9.028;2022-08-01T22:24:12;5.20;;;3.03;;
24102;SDS011;12278;53.058;9.028;2022-08-01T22:28:14;8.70;;;3.03;;
24102;SDS011;12278;53.058;9.028;2022-08-01T22:32:16;3.25;;;2.70;;
24102;SDS011;12278;53.058;9.028;2022-08-01T22:36:17;3.72;;;2.72;;
24102;SDS011;12278;53.058;9.028;2022-08-01T22:40:20;3.95;;;3.10;;
24102;SDS011;12278;53.058;9.028;2022-08-01T22:44:24;5.03;;;3.10;;
24102;SDS011;12278;53.058;9.028;2022-08-01T22:49:01;4.38;;;2.72;;
24102;SDS011;12278;53.058;9.028;2022-08-01T22:58:00;5.80;;;3.17;;
24102;SDS011;12278;53.058;9.028;2022-08-01T23:02:03;5.40;;;3.28;;
24102;SDS011;12278;53.058;9.028;2022-08-01T23:10:15;5.13;;;2.50;;
24102;SDS011;12278;53.058;9.028;2022-08-01T23:14:21;4.32;;;2.70;;
24102;SDS011;12278;53.058;9.028;2022-08-01T23:18:23;4.22;;;3.20;;
24102;SDS011;12278;53.058;9.028;2022-08-01T23:22:29;4.30;;;3.20;;
24102;SDS011;12278;53.058;9.028;2022-08-01T23:46:40;3.28;;;2.72;;
24102;SDS011;12278;53.058;9.028;2022-08-01T23:50:40;5.93;;;3.33;;
24102;SDS011;12278;53.058;9.028;2022-08-01T23:54:41;3.30;;;2.97;;
24102;SDS011;12278;53.058;9.028;2022-08-01T23:58:42;4.10;;;2.80;;
